Flight Track Log - Related Links

Times and Time Zones

All times are in EDT time to prevent confusion due to time zone crossing. See the ASQ5561 flight status page for this flight to view local times or setup timezone preferences in your user account.


Time Position Orientation Groundspeed Altitude Reporting Facility
EDT Latitude Longitude Course Direction KTS MPH feet Rate Location/Type
Tue 05:43:40 PM 41.2414 -75.8147 213° Southwest 220 253 5,900  Level New York Center
Tue 05:44:40 PM 41.2233 -75.8961 254° West 232 267 9,200 2,100 Climbing New York Center
Tue 05:45:40 PM 41.3028 -75.9356 340° North 218 251 10,100 400 Climbing New York Center
Tue 05:46:40 PM 41.4017 -75.9594 350° North 298 343 10,000 -50 Descending New York Center
Tue 05:47:40 PM 41.5019 -75.9536 North 331 381 10,000 400 Level New York Center
Tue 05:48:00 PM 41.7026 -75.9013 340° North  Level FlightAware Approximate
Tue 05:48:40 PM 41.6031 -75.9308 10° North 347 399 10,800  Level New York Center
Tue 05:49:40 PM 41.7039 -75.9108 North 364 419 13,000 2,050 Climbing New York Center
Tue 05:50:40 PM 41.7961 -75.8928 North 369 425 14,900 1,900 Climbing New York Center
Tue 05:51:40 PM 41.8742 -75.9658 325° Northwest 349 402 16,800 1,950 Climbing New York Center
Tue 05:52:40 PM 41.9047 -76.0797 290° West 305 351 18,800 1,650 Climbing New York Center
Tue 05:53:40 PM 41.9381 -76.2161 288° West 325 374 20,100 1,250 Climbing New York Center
Tue 05:54:40 PM 41.9717 -76.3444 289° West 353 406 21,300 1,200 Climbing New York Center
Tue 05:55:40 PM 42.0028 -76.4756 288° West 365 420 22,500 1,250 Climbing New York Center
Tue 05:56:40 PM 42.0361 -76.6039 289° West 371 427 23,800 1,091 Climbing New York Center
Tue 05:59:09 PM 42.1128 -76.9178 288° West 366 421 26,300 967 Climbing Cleveland Center
Tue 06:00:11 PM 42.1439 -77.0481 288° West 366 421 27,200 823 Climbing Cleveland Center
Tue 06:01:13 PM 42.1756 -77.1794 288° West 366 421 28,000 677 Climbing Cleveland Center
Tue 06:02:15 PM 42.2069 -77.3114 288° West 366 421 28,600 576 Climbing Cleveland Center
Tue 06:03:18 PM 42.2458 -77.4750 288° West 375 432 29,200 528 Climbing Cleveland Center
Tue 06:04:20 PM 42.2867 -77.6111 292° West 383 441 29,700 387 Climbing Cleveland Center
Tue 06:05:22 PM 42.3303 -77.7461 294° West 389 448 30,000 145 Climbing Cleveland Center
Tue 06:06:24 PM 42.3753 -77.8847 294° West 394 453 30,000  Level Cleveland Center
Tue 06:07:26 PM 42.4200 -78.0236 294° West 397 457 30,000  Level Cleveland Center
Tue 06:08:28 PM 42.4644 -78.1636 293° West 400 460 30,000  Level Cleveland Center
Tue 06:09:30 PM 42.5083 -78.3053 293° West 401 461 30,000  Level Cleveland Center
Tue 06:10:32 PM 42.5531 -78.4472 293° West 406 467 30,000  Level Cleveland Center
Tue 06:11:34 PM 42.6083 -78.6181 294° West 411 473 30,000  Level Cleveland Center
Tue 06:12:36 PM 42.6525 -78.7606 293° West 411 473 30,000  Level Cleveland Center
Tue 06:13:39 PM 42.6961 -78.9025 293° West 409 471 30,000  Level Cleveland Center
Tue 06:14:41 PM 42.7158 -79.0500 280° West 401 461 30,000  Level Cleveland Center
Tue 06:15:43 PM 42.7167 -79.1994 270° West 398 458 30,000  Level Cleveland Center
Tue 06:16:45 PM 42.7158 -79.3492 270° West 396 456 30,000  Level Cleveland Center
Tue 06:17:47 PM 42.7167 -79.5303 270° West 398 458 30,000  Level Cleveland Center
Tue 06:18:49 PM 42.7161 -79.6808 270° West 398 458 30,000  Level Cleveland Center
Tue 06:19:51 PM 42.7153 -79.8311 270° West 399 459 30,000  Level Cleveland Center
Tue 06:20:53 PM 42.7142 -79.9861 269° West 399 459 30,000 -97 Level Cleveland Center
Tue 06:21:55 PM 42.7133 -80.1372 270° West 400 460 29,800 -480 Descending Cleveland Center
Tue 06:22:58 PM 42.7122 -80.2903 269° West 404 465 29,000 -768 Descending Cleveland Center
Tue 06:24:00 PM 42.7111 -80.4428 269° West 405 466 28,200 -484 Descending Cleveland Center
Tue 06:25:02 PM 42.7092 -80.6258 269° West 404 465 28,000 -290 Descending Cleveland Center
Tue 06:26:04 PM 42.7072 -80.7792 269° West 405 466 27,600 -677 Descending Cleveland Center
Tue 06:27:06 PM 42.7017 -80.9317 267° West 408 470 26,600 -919 Descending Cleveland Center
Tue 06:28:08 PM 42.6844 -81.0756 261° West 407 468 25,700 -1,016 Descending Cleveland Center
Tue 06:29:10 PM 42.6653 -81.2544 262° West 403 464 24,500 -1,065 Descending Cleveland Center
Tue 06:30:12 PM 42.6469 -81.4025 260° West 400 460 23,500 -968 Descending Cleveland Center
Tue 06:31:14 PM 42.6300 -81.5503 261° West 396 456 22,500 -720 Descending Cleveland Center
Tue 06:32:17 PM 42.6142 -81.6817 261° West 346 398 22,000 -240 Descending Cleveland Center
Tue 06:33:19 PM 42.6003 -81.8019 261° West 326 375 22,000 -581 Level Cleveland Center
Tue 06:34:21 PM 42.5858 -81.9247 261° West 329 379 20,800 -1,548 Descending Cleveland Center
Tue 06:35:23 PM 42.5686 -82.0675 261° West 323 372 18,800 -1,790 Descending Cleveland Center
Tue 06:36:25 PM 42.5544 -82.1814 260° West 312 359 17,100 -1,645 Descending Cleveland Center
Tue 06:37:27 PM 42.5397 -82.2906 260° West 300 345 15,400 -1,692 Descending Cleveland Center
Tue 06:37:43 PM 42.5353 -82.3322 262° West 297 342 14,900 -1,585 Descending Cleveland Center
Tue 06:38:20 PM 42.5264 -82.3989 260° West 295 339 14,000 -1,304 Descending Cleveland Center
Tue 06:38:29 PM 42.5261 -82.4008 259° West 299 344 13,900 -1,475 Descending Cleveland Center
Tue 06:39:21 PM 42.5128 -82.5075 260° West 291 335 12,500 -1,452 Descending Cleveland Center
Tue 06:39:31 PM 42.5131 -82.5083 294° West 291 335 12,400 -393 Descending Cleveland Center
Tue 06:40:22 PM 42.4867 -82.6089 250° West 285 328 12,100 -387 Descending Cleveland Center
Tue 06:40:33 PM 42.4794 -82.6292 244° Southwest 288 331 12,000  Descending Cleveland Center
Tue 06:41:24 PM 42.4500 -82.7117 244° Southwest 287 330 12,100  Climbing Cleveland Center
Tue 06:41:35 PM 42.4442 -82.7264 242° Southwest 289 333 12,000  Descending Cleveland Center
Tue 06:42:25 PM 42.4136 -82.8114 244° Southwest 292 336 12,100  Climbing Cleveland Center
Tue 06:42:38 PM 42.4092 -82.8242 245° Southwest 289 333 12,000  Descending Cleveland Center
Tue 06:43:26 PM 42.3769 -82.9108 243° Southwest 294 338 12,100 -97 Climbing Cleveland Center
Tue 06:43:40 PM 42.3728 -82.9236 246° West 291 335 11,900 -393 Descending Cleveland Center
Tue 06:44:27 PM 42.3422 -83.0108 245° Southwest 295 339 11,700 -581 Descending Cleveland Center
Tue 06:44:42 PM 42.3375 -83.0225 241° Southwest 292 336 11,300 -590 Descending Cleveland Center
Tue 06:45:28 PM 42.3081 -83.1050 244° Southwest 247 284 11,100 -290 Descending Cleveland Center
Tue 06:45:44 PM 42.3064 -83.1086 238° Southwest 264 304 11,000  Descending Cleveland Center
Tue 06:46:29 PM 42.2658 -83.1639 225° Southwest 216 249 11,100  Climbing Cleveland Center
Tue 06:46:46 PM 42.2522 -83.1736 208° Southwest 230 265 11,000 -98 Descending Cleveland Center
Tue 06:47:30 PM 42.2122 -83.2072 212° Southwest 226 260 11,000 -194 Level Cleveland Center
Tue 06:47:48 PM 42.1981 -83.2161 205° Southwest 223 257 10,800 -1,309 Descending Cleveland Center
Tue 06:48:25 PM 42.1653 -83.2431 211° Southwest 207 238 9,800 -1,645 Descending Cleveland Center
Tue 06:48:50 PM 42.1483 -83.2564 210° Southwest 211 243 9,100 -1,180 Descending Cleveland Center
Tue 06:49:26 PM 42.1161 -83.2842 213° Southwest 206 237 8,600 -871 Descending Cleveland Center
Tue 06:49:52 PM 42.0983 -83.2972 209° Southwest 211 243 8,200 -1,075 Descending Cleveland Center
Tue 06:50:33 PM 42.0628 -83.3244 210° Southwest 202 232 7,400 -1,143 Descending Cleveland Center
Tue 06:50:55 PM 42.0489 -83.3353 210° Southwest 209 241 7,000 -295 Descending Cleveland Center
Tue 06:51:34 PM 42.0136 -83.3625 210° Southwest 201 231 7,100 -290 Climbing Cleveland Center
Tue 06:51:57 PM 42.0011 -83.3728 211° Southwest 203 234 6,700 -984 Descending Cleveland Center
Tue 06:52:35 PM 41.9625 -83.4003 208° Southwest 196 226 6,100 -774 Descending Cleveland Center
Tue 06:52:59 PM 41.9525 -83.4083 211° Southwest 202 232 5,900 -787 Descending Cleveland Center
Tue 06:53:36 PM 41.9156 -83.4358 209° Southwest 192 221 5,300 -871 Descending Cleveland Center
Tue 06:54:01 PM 41.8972 -83.4494 209° Southwest 196 226 5,000 -600 Descending Cleveland Center
Tue 06:54:36 PM 41.8689 -83.4711 210° Southwest 191 220 4,700 -871 Descending Cleveland Center
Tue 06:55:03 PM 41.8719 -83.4961 279° West 198 228 4,100 -590 Descending Cleveland Center
Tue 06:55:37 PM 41.8894 -83.5275 307° West 158 182 4,100 -97 Level Cleveland Center
Tue 06:56:05 PM 41.9014 -83.5381 327° Northwest 176 203 4,000  Descending Cleveland Center
Tue 06:56:38 PM 41.9328 -83.5364 North 170 196 4,100  Climbing Cleveland Center
Tue 06:57:07 PM 41.9500 -83.5308 13° North 176 203 4,000  Descending Cleveland Center
Tue 06:57:39 PM 41.9811 -83.5097 27° Northeast 180 207 4,100  Climbing Cleveland Center
Tue 06:58:09 PM 41.9947 -83.4989 31° Northeast 176 203 4,000  Descending Cleveland Center
Tue 06:58:47 PM 42.0303 -83.4717 30° Northeast 186 214 4,100  Climbing Cleveland Center
Tue 06:59:11 PM 42.0389 -83.4664 24° Northeast 178 205 4,000 -400 Descending Cleveland Center
Tue 06:59:47 PM 42.0744 -83.4414 28° Northeast 179 206 3,700 -871 Descending Cleveland Center
Tue 07:00:13 PM 42.0922 -83.4269 31° Northeast 181 208 3,100 -1,082 Descending Cleveland Center
Tue 07:00:48 PM 42.1189 -83.4083 27° Northeast 177 204 2,600 -968 Descending Cleveland Center
Tue 07:01:15 PM 42.1353 -83.3961 29° Northeast 181 208 2,100 -984 Descending Cleveland Center
Tue 07:01:49 PM 42.1592 -83.3775 30° Northeast 139 160 1,600 -762 Descending Cleveland Center
Tue 07:02:18 PM 42.1703 -83.3692 29° Northeast 160 184 1,300 -764 Descending Cleveland Center
Tue 07:02:44 PM 42.1900 -83.3564 26° Northeast 139 160 900 -387 Descending Cleveland Center
Tue 07:03:20 PM 42.2092 -83.3417 30° Northeast 149 171 900  Level Cleveland Center

Login

Don't have an account? Register now (free) for customized features, flight alerts, and more!